Hauptseite
METAR-TAF:

METAR-TAF

Flughäfen :

Bamako, Mali

Flughafen Bamako

Breite: 12-32N, Länge: 007-57W, Höhe: 380 m

Beobachtung

Neuester Wetterbericht von vor 20 Minuten, um 05:00 UTC
Wind 2 kt aus Süd/Südwest
Temperatur 30°C
Luftfeuchtigkeit 29%
Luftdruck 1011 hPa
Sichtweite 10 km oder mehr
keine Wolken unter 1500 m und keine Kumulonimbus oder Gewitterwolken

METAR: GABS 260500Z 20002KT CAVOK 30/10 Q1011 NOSIG

Zeit: 05:20 (05:20 UTC)

Prognose

Neuester Wetterbericht von vor 6 Stunden und 20 Minuten, um 23:00 UTC
Gültige Prognose vom 26 um 00 UTC bis 27 um 06 UTC
Wind 10 kt aus West/Nordwest
Sichtweite 10 km oder mehr
keine Wolken unter 1500 m und keine Kumulonimbus oder Gewitterwolken
Übergehend zu
vom 26 um 08 UTC bis 26 um 10 UTC
Wind 12 kt aus Nord

TAF: GABS 252300Z 2600/2706 29010KT CAVOK BECMG 2608/2610 35012KT

Wetterbeobachtungen und Prognosen von mehr als 4000 Flughäfen (METAR und TAF Bericht).

Die verfügbaren Stationen werden durch gelbe und rote Markierungen auf der Karte dargestellt.

Führen Sie die Maus auf sie, um den Namen der Station zu sehen.

Darauf klicken, um die Beobachtung von Wetterbeobachtungen und Prognosen zu sehen.

Um die Karte zu ändern : klicken Sie auf den grünen Tasten mit einem schwarzen Kreuz Zum Vergrößern, auf den grünen Button mit einem Gedankenstrich zu verkleinern, oder auf die grünen Pfeile für benachbarte Karten.


METAR-TAF: